Time;durP1;ratioP1;P1;durP2;ratioP2;P2;SDS_P1;SDS_P2;PMS_P1;PMS_P2;Temp;Humidity;BMP_temperature;BMP_pressure;BME280_temperature;BME280_humidity;BME280_pressure;Samples;Min_cycle;Max_cycle;Signal;HPM_P1;HPM_P2
2022/02/16 00:01:00;;;;;;;8.98;6.82;;;8.80;97.30;;;;;;5113018;27;20237;-64
2022/02/16 00:03:27;;;;;;;3.90;3.60;;;8.80;97.30;;;;;;5113093;27;20219;-64
2022/02/16 00:05:53;;;;;;;3.42;3.13;;;8.80;97.00;;;;;;5099727;28;20693;-64
2022/02/16 00:08:20;;;;;;;2.85;2.65;;;8.80;97.00;;;;;;5099645;28;20228;-64
2022/02/16 00:10:47;;;;;;;12.48;10.55;;;8.80;97.00;;;;;;5106764;28;20224;-64
2022/02/16 00:13:14;;;;;;;2.80;2.35;;;8.80;97.10;;;;;;5105858;28;20306;-64
2022/02/16 00:15:42;;;;;;;3.00;2.50;;;8.80;96.80;;;;;;5093057;28;20298;-63
2022/02/16 00:18:09;;;;;;;19.17;13.43;;;8.70;96.70;;;;;;5106952;28;20230;-63
2022/02/16 00:20:36;;;;;;;11.80;7.75;;;8.70;96.80;;;;;;5105664;28;20230;-63
2022/02/16 00:23:04;;;;;;;4.35;2.85;;;8.80;96.90;;;;;;5106539;27;20226;-63
2022/02/16 00:25:30;;;;;;;4.63;3.08;;;8.70;96.60;;;;;;5112415;27;20223;-63
2022/02/16 00:27:57;;;;;;;8.43;5.30;;;8.60;96.60;;;;;;5112840;28;20230;-63
2022/02/16 00:30:24;;;;;;;3.72;3.30;;;8.70;96.80;;;;;;5105393;28;20238;-63
2022/02/16 00:32:53;;;;;;;2.60;2.40;;;8.70;96.80;;;;;;5112169;28;20532;-64
2022/02/16 00:35:20;;;;;;;3.25;2.60;;;8.70;97.00;;;;;;5112520;27;20222;-63
2022/02/16 00:37:46;;;;;;;9.57;6.15;;;8.80;97.50;;;;;;5112038;28;20313;-64
2022/02/16 00:40:14;;;;;;;6.40;5.32;;;8.80;97.60;;;;;;5100519;28;20785;-64
2022/02/16 00:42:41;;;;;;;4.40;3.72;;;8.80;97.80;;;;;;5098661;28;20223;-63
2022/02/16 00:45:09;;;;;;;3.70;2.80;;;8.80;98.30;;;;;;5105132;28;20234;-63
2022/02/16 00:47:35;;;;;;;3.67;2.75;;;8.80;98.50;;;;;;5108166;27;20284;-64
2022/02/16 00:50:04;;;;;;;4.18;2.75;;;8.70;98.60;;;;;;5104846;27;20673;-64
2022/02/16 00:52:31;;;;;;;3.70;2.85;;;8.70;99.20;;;;;;5116598;27;20511;-64
2022/02/16 00:54:58;;;;;;;3.40;3.05;;;8.60;99.50;;;;;;5116942;27;20241;-63
2022/02/16 00:57:24;;;;;;;27.25;16.15;;;8.60;99.70;;;;;;5107350;28;20230;-64
2022/02/16 00:59:51;;;;;;;4.07;2.53;;;8.60;99.90;;;;;;5117146;28;20222;-64
2022/02/16 01:02:18;;;;;;;3.83;2.47;;;8.60;99.90;;;;;;5116046;27;20223;-63
2022/02/16 01:04:45;;;;;;;3.83;3.53;;;8.60;99.90;;;;;;5116708;27;20290;-63
2022/02/16 01:07:13;;;;;;;5.25;3.97;;;8.60;99.90;;;;;;5114414;27;20219;-63
2022/02/16 01:09:42;;;;;;;3.40;2.65;;;8.50;99.90;;;;;;5104998;28;20230;-64
2022/02/16 01:12:09;;;;;;;3.03;2.65;;;8.50;99.90;;;;;;5102962;28;20681;-64
2022/02/16 01:14:36;;;;;;;4.22;2.50;;;8.60;99.90;;;;;;5106943;28;20238;-64
2022/02/16 01:17:07;;;;;;;4.50;2.85;;;8.60;99.90;;;;;;5112898;27;20225;-63
2022/02/16 01:19:34;;;;;;;6.75;4.80;;;8.50;99.90;;;;;;5107266;27;20211;-63
2022/02/16 01:22:02;;;;;;;3.05;2.75;;;8.50;99.90;;;;;;5109558;27;20633;-63
2022/02/16 01:24:30;;;;;;;4.47;3.03;;;8.50;99.90;;;;;;5115130;27;20275;-64
2022/02/16 01:26:57;;;;;;;4.13;3.10;;;8.50;99.90;;;;;;5114040;27;20271;-64
2022/02/16 01:29:24;;;;;;;7.93;4.95;;;8.50;99.90;;;;;;5115905;28;20752;-64
2022/02/16 01:31:50;;;;;;;4.18;3.50;;;8.50;99.90;;;;;;5102693;28;20695;-64
2022/02/16 01:34:17;;;;;;;6.50;2.72;;;8.50;99.90;;;;;;5106616;28;20681;-63
2022/02/16 01:36:46;;;;;;;3.25;2.95;;;8.50;99.90;;;;;;5114417;28;20246;-64
2022/02/16 01:39:14;;;;;;;7.22;5.50;;;8.50;99.90;;;;;;5103272;28;20224;-64
2022/02/16 01:41:42;;;;;;;4.18;3.08;;;8.50;99.90;;;;;;5108794;28;20232;-64
2022/02/16 01:44:09;;;;;;;4.20;3.20;;;8.50;99.90;;;;;;5109014;28;20219;-64
2022/02/16 01:46:49;;;;;;;4.35;3.08;;;8.40;99.90;;;;;;5101820;28;20749;-64
2022/02/16 01:49:16;;;;;;;6.72;4.95;;;8.30;99.90;;;;;;5102055;28;20227;-64
2022/02/16 01:51:44;;;;;;;6.03;3.35;;;8.20;99.90;;;;;;5114256;27;20219;-64
2022/02/16 01:54:11;;;;;;;3.70;2.90;;;8.20;99.90;;;;;;5115813;28;20230;-64
2022/02/16 01:56:38;;;;;;;4.15;3.55;;;8.10;99.90;;;;;;5106475;28;20573;-64
2022/02/16 01:59:07;;;;;;;5.55;3.15;;;8.00;99.90;;;;;;5115460;28;20254;-64
2022/02/16 02:01:36;;;;;;;3.65;3.35;;;8.10;99.90;;;;;;5105809;27;20235;-64
2022/02/16 02:04:02;;;;;;;11.65;6.68;;;8.10;99.90;;;;;;5109103;28;20284;-63
2022/02/16 02:06:29;;;;;;;3.28;3.08;;;8.10;99.90;;;;;;5104728;28;20231;-64
2022/02/16 02:08:56;;;;;;;3.95;3.08;;;8.10;99.90;;;;;;5112888;27;20223;-63
2022/02/16 02:11:23;;;;;;;3.90;3.22;;;8.10;99.90;;;;;;5112374;27;20313;-63
2022/02/16 02:13:57;;;;;;;6.03;4.18;;;8.10;99.90;;;;;;5115160;27;20298;-63
2022/02/16 02:16:25;;;;;;;6.28;3.40;;;8.00;99.90;;;;;;5113645;27;20223;-63
2022/02/16 02:18:52;;;;;;;8.10;4.22;;;8.10;99.90;;;;;;5114738;27;20230;-64
2022/02/16 02:21:21;;;;;;;4.50;3.20;;;8.10;99.90;;;;;;5104205;28;20238;-64
2022/02/16 02:23:49;;;;;;;6.65;3.30;;;8.10;99.90;;;;;;5114295;27;20226;-64
2022/02/16 02:26:17;;;;;;;4.32;3.92;;;8.10;99.90;;;;;;5111364;27;20219;-63
2022/02/16 02:28:45;;;;;;;5.43;4.95;;;8.10;99.90;;;;;;5112779;27;20223;-63
2022/02/16 02:31:12;;;;;;;12.63;6.75;;;8.20;99.90;;;;;;5114697;28;20229;-64
2022/02/16 02:33:39;;;;;;;11.32;6.43;;;8.10;99.90;;;;;;5100430;28;20237;-64
2022/02/16 02:36:06;;;;;;;7.05;4.00;;;8.10;99.90;;;;;;5114873;27;20219;-63
2022/02/16 02:38:35;;;;;;;4.70;4.20;;;8.10;99.90;;;;;;5100803;28;20234;-64
2022/02/16 02:41:03;;;;;;;3.42;3.22;;;8.10;99.90;;;;;;5114069;27;20230;-63
2022/02/16 02:43:31;;;;;;;5.10;3.88;;;8.20;99.90;;;;;;5102356;27;20222;-63
2022/02/16 02:45:58;;;;;;;5.82;3.83;;;8.20;99.90;;;;;;5114828;27;20225;-63
2022/02/16 02:48:26;;;;;;;5.53;3.95;;;8.20;99.90;;;;;;5113377;27;20219;-63
2022/02/16 02:50:54;;;;;;;4.47;4.18;;;8.20;99.90;;;;;;5113729;27;20302;-63
2022/02/16 02:53:21;;;;;;;4.03;3.63;;;8.20;99.90;;;;;;5112280;27;20219;-63
2022/02/16 02:55:49;;;;;;;5.28;3.85;;;8.20;99.90;;;;;;5108988;27;20219;-63
2022/02/16 02:58:16;;;;;;;4.15;3.15;;;8.20;99.90;;;;;;5104546;28;20214;-63
2022/02/16 03:00:43;;;;;;;7.63;3.78;;;8.20;99.90;;;;;;5103105;27;20227;-63
2022/02/16 03:03:10;;;;;;;4.07;3.50;;;8.20;99.90;;;;;;5108742;28;20219;-64
2022/02/16 03:05:37;;;;;;;3.00;2.60;;;8.10;99.90;;;;;;5113759;27;20234;-64
2022/02/16 03:08:04;;;;;;;3.80;3.00;;;8.10;99.90;;;;;;5114264;27;20655;-63
2022/02/16 03:10:34;;;;;;;4.00;3.50;;;8.10;99.90;;;;;;5110917;28;20245;-64
2022/02/16 03:13:18;;;;;;;4.15;3.70;;;8.10;99.90;;;;;;5100229;27;20216;-64
2022/02/16 03:15:46;;;;;;;4.55;3.58;;;8.20;99.90;;;;;;5111032;27;20266;-64
2022/02/16 03:18:13;;;;;;;4.28;3.15;;;8.20;99.90;;;;;;5114021;27;20673;-64
2022/02/16 03:20:40;;;;;;;3.72;3.40;;;8.10;99.90;;;;;;5113357;28;20687;-64
2022/02/16 03:23:07;;;;;;;8.30;5.22;;;8.10;99.90;;;;;;5113457;27;20227;-64
2022/02/16 03:25:33;;;;;;;6.45;3.95;;;8.10;99.90;;;;;;5112944;27;20230;-64
2022/02/16 03:28:02;;;;;;;4.18;3.65;;;8.10;99.90;;;;;;5113874;28;20238;-63
2022/02/16 03:30:29;;;;;;;8.23;4.13;;;8.10;99.90;;;;;;5100328;28;20257;-64
2022/02/16 03:32:56;;;;;;;4.47;3.50;;;8.10;99.90;;;;;;5113072;27;20234;-64
2022/02/16 03:35:23;;;;;;;4.78;4.38;;;8.10;99.90;;;;;;5104888;28;20336;-64
2022/02/16 03:37:49;;;;;;;3.85;3.53;;;8.20;99.90;;;;;;5112513;28;20223;-63
2022/02/16 03:40:16;;;;;;;4.78;2.90;;;8.10;99.90;;;;;;5100585;28;20283;-64
2022/02/16 03:42:43;;;;;;;9.77;5.43;;;8.10;99.90;;;;;;5099417;27;20242;-64
2022/02/16 03:45:11;;;;;;;4.55;3.22;;;8.10;99.90;;;;;;5105617;28;20216;-64
2022/02/16 03:47:38;;;;;;;3.40;3.20;;;8.10;99.90;;;;;;5106308;28;20227;-63
2022/02/16 03:50:06;;;;;;;5.20;3.13;;;8.20;99.90;;;;;;5101356;27;20230;-64
2022/02/16 03:52:32;;;;;;;8.15;5.70;;;8.10;99.90;;;;;;5113276;27;20569;-64
2022/02/16 03:55:01;;;;;;;4.13;3.50;;;8.20;99.90;;;;;;5112668;27;20219;-63
2022/02/16 03:57:27;;;;;;;3.55;3.25;;;8.20;99.90;;;;;;5106456;28;20216;-64
2022/02/16 03:59:54;;;;;;;4.40;3.28;;;8.20;99.90;;;;;;5107577;27;20224;-64
2022/02/16 04:02:22;;;;;;;4.35;3.45;;;8.20;99.90;;;;;;5104958;28;20220;-64
2022/02/16 04:04:49;;;;;;;4.10;2.92;;;8.20;99.90;;;;;;5106004;28;20237;-63
2022/02/16 04:07:16;;;;;;;3.50;3.22;;;8.20;99.90;;;;;;5101446;28;20219;-63
2022/02/16 04:09:43;;;;;;;5.60;5.10;;;8.30;99.90;;;;;;5099182;27;20231;-64
2022/02/16 04:12:10;;;;;;;5.05;3.80;;;8.30;99.90;;;;;;5103806;28;20669;-63
2022/02/16 04:14:37;;;;;;;3.55;2.90;;;8.30;99.90;;;;;;5099179;28;20226;-64
2022/02/16 04:17:04;;;;;;;4.50;3.60;;;8.30;99.90;;;;;;5097426;28;20853;-64
2022/02/16 04:19:32;;;;;;;5.40;4.03;;;8.30;99.90;;;;;;5108684;28;20219;-64
2022/02/16 04:21:59;;;;;;;3.97;3.55;;;8.30;99.90;;;;;;5104638;28;20327;-63
2022/02/16 04:24:26;;;;;;;3.75;3.45;;;8.30;99.90;;;;;;5111643;27;20226;-63
2022/02/16 04:26:52;;;;;;;4.72;3.22;;;8.30;99.90;;;;;;5108177;28;20220;-63
2022/02/16 04:29:19;;;;;;;3.25;2.92;;;8.30;99.90;;;;;;5109037;28;20223;-64
2022/02/16 04:31:46;;;;;;;3.90;3.60;;;8.30;99.90;;;;;;5101955;28;20242;-64
2022/02/16 04:34:13;;;;;;;8.43;3.25;;;8.30;99.90;;;;;;5100868;28;20215;-64
2022/02/16 04:36:44;;;;;;;4.13;3.22;;;8.20;99.90;;;;;;5102136;27;20227;-64
2022/02/16 04:39:12;;;;;;;4.82;3.78;;;8.20;99.90;;;;;;5110430;28;20225;-64
2022/02/16 04:41:46;;;;;;;3.78;3.47;;;8.20;99.90;;;;;;5101270;28;20224;-63
2022/02/16 04:44:13;;;;;;;6.35;4.72;;;8.20;99.90;;;;;;5110656;28;20215;-63
2022/02/16 04:46:40;;;;;;;3.75;3.38;;;8.30;99.90;;;;;;5100381;28;20546;-63
2022/02/16 04:49:07;;;;;;;5.88;3.53;;;8.30;99.90;;;;;;5105136;28;20223;-64
2022/02/16 04:51:33;;;;;;;4.28;3.75;;;8.30;99.90;;;;;;5109723;27;20246;-64
2022/02/16 04:54:02;;;;;;;3.75;3.45;;;8.30;99.90;;;;;;5109583;27;20222;-64
2022/02/16 04:56:28;;;;;;;2.65;2.42;;;8.40;99.90;;;;;;5112303;27;20231;-64
2022/02/16 04:58:55;;;;;;;3.28;2.78;;;8.40;99.90;;;;;;5110961;27;20215;-64
2022/02/16 05:01:22;;;;;;;4.55;3.42;;;8.40;99.90;;;;;;5112403;28;20305;-64
2022/02/16 05:03:49;;;;;;;3.90;3.00;;;8.50;99.90;;;;;;5098804;28;20249;-64
2022/02/16 05:06:16;;;;;;;4.82;2.78;;;8.50;99.90;;;;;;5110538;28;20215;-64
2022/02/16 05:08:42;;;;;;;4.97;4.20;;;8.50;99.90;;;;;;5098816;28;20227;-64
2022/02/16 05:11:10;;;;;;;3.40;3.10;;;8.60;99.90;;;;;;5109568;28;20227;-63
2022/02/16 05:13:37;;;;;;;3.13;2.20;;;8.70;99.90;;;;;;5093813;28;20685;-64
2022/02/16 05:16:05;;;;;;;5.88;2.58;;;8.60;99.90;;;;;;5096259;28;20291;-64
2022/02/16 05:18:33;;;;;;;3.88;3.53;;;8.60;99.90;;;;;;5110253;28;20614;-64
2022/02/16 05:21:00;;;;;;;2.95;2.20;;;8.50;99.90;;;;;;5096773;28;20560;-64
2022/02/16 05:23:28;;;;;;;3.95;3.30;;;8.50;99.90;;;;;;5111421;27;20246;-64
2022/02/16 05:25:55;;;;;;;3.22;2.92;;;8.60;99.90;;;;;;5109052;28;20577;-64
2022/02/16 05:28:24;;;;;;;5.43;3.92;;;8.60;99.90;;;;;;5100588;28;20253;-64
2022/02/16 05:30:50;;;;;;;3.78;3.15;;;8.50;99.90;;;;;;5097086;28;20243;-65
2022/02/16 05:33:18;;;;;;;4.93;3.53;;;8.50;99.90;;;;;;5111591;27;21050;-65
2022/02/16 05:35:45;;;;;;;3.53;3.10;;;8.60;99.90;;;;;;5110797;27;20314;-64
2022/02/16 05:38:12;;;;;;;3.75;2.55;;;8.50;99.90;;;;;;5102445;28;20638;-64
2022/02/16 05:40:39;;;;;;;8.65;5.40;;;8.60;99.90;;;;;;5115389;28;20701;-65
2022/02/16 05:43:08;;;;;;;3.65;3.40;;;8.60;99.90;;;;;;5102947;28;20695;-65
2022/02/16 05:45:36;;;;;;;3.20;2.90;;;8.60;99.90;;;;;;5102027;28;20230;-63
2022/02/16 05:48:03;;;;;;;4.35;3.90;;;8.60;99.90;;;;;;5107366;28;20234;-63
2022/02/16 05:50:29;;;;;;;4.57;4.18;;;8.60;99.90;;;;;;5110540;27;20242;-63
2022/02/16 05:52:57;;;;;;;7.13;5.05;;;8.60;99.90;;;;;;5115224;28;20219;-64
2022/02/16 05:55:24;;;;;;;3.70;2.75;;;8.70;99.90;;;;;;5102011;28;20231;-64
2022/02/16 05:57:51;;;;;;;4.75;2.95;;;8.60;99.90;;;;;;5115753;27;20704;-63
2022/02/16 06:00:18;;;;;;;9.93;7.28;;;8.60;99.90;;;;;;5112957;27;20564;-64
2022/02/16 06:02:47;;;;;;;3.78;2.92;;;8.60;99.90;;;;;;5104664;28;20588;-64
2022/02/16 06:05:13;;;;;;;4.78;4.22;;;8.70;99.90;;;;;;5105827;27;20238;-63
2022/02/16 06:07:40;;;;;;;6.00;3.28;;;8.70;99.90;;;;;;5113075;27;20230;-63
2022/02/16 06:10:08;;;;;;;3.30;3.10;;;8.60;99.90;;;;;;5092669;28;20228;-64
2022/02/16 06:12:39;;;;;;;2.42;2.22;;;8.70;99.90;;;;;;5095072;28;20224;-64
2022/02/16 06:15:07;;;;;;;3.47;3.17;;;8.60;99.90;;;;;;5094896;28;20223;-65
2022/02/16 06:17:34;;;;;;;6.78;4.72;;;8.70;99.90;;;;;;5095297;28;20235;-65
2022/02/16 06:20:02;;;;;;;3.28;3.05;;;8.70;99.90;;;;;;5094894;28;20231;-65
2022/02/16 06:22:29;;;;;;;12.57;7.28;;;8.70;99.90;;;;;;5095074;28;20513;-65
2022/02/16 06:24:56;;;;;;;4.72;3.45;;;8.70;99.90;;;;;;5095205;28;20219;-64
2022/02/16 06:27:23;;;;;;;4.25;3.88;;;8.80;99.90;;;;;;5095129;28;20573;-64
2022/02/16 06:29:50;;;;;;;3.47;3.17;;;8.80;99.90;;;;;;5094902;28;20235;-64
2022/02/16 06:32:17;;;;;;;3.80;2.20;;;8.80;99.90;;;;;;5094688;28;20219;-65
2022/02/16 06:34:44;;;;;;;2.67;2.47;;;8.80;99.90;;;;;;5094919;28;20219;-65
2022/02/16 06:37:12;;;;;;;6.60;5.35;;;8.80;99.90;;;;;;5094560;28;20292;-65
2022/02/16 06:39:39;;;;;;;8.52;7.53;;;8.80;99.90;;;;;;5094731;28;20223;-65
2022/02/16 06:42:06;;;;;;;5.82;5.28;;;8.80;99.90;;;;;;5094440;28;20230;-65
2022/02/16 06:44:32;;;;;;;4.05;2.60;;;8.80;99.90;;;;;;5093626;28;20223;-65
2022/02/16 06:46:59;;;;;;;2.80;2.60;;;8.70;99.90;;;;;;5094995;28;20228;-65
2022/02/16 06:49:26;;;;;;;3.70;3.40;;;8.70;99.90;;;;;;5094298;28;20986;-64
2022/02/16 06:51:53;;;;;;;4.07;2.75;;;8.70;99.90;;;;;;5094700;28;20220;-64
2022/02/16 06:54:21;;;;;;;2.70;2.50;;;8.70;99.90;;;;;;5094329;28;20231;-64
2022/02/16 06:56:48;;;;;;;6.93;5.90;;;8.70;99.90;;;;;;5094181;28;20239;-64
2022/02/16 06:59:15;;;;;;;8.40;6.63;;;8.80;99.90;;;;;;5093911;28;20220;-64
2022/02/16 07:01:42;;;;;;;8.38;4.88;;;8.70;99.90;;;;;;5094749;28;20243;-64
2022/02/16 07:04:09;;;;;;;5.65;3.63;;;8.70;99.90;;;;;;5093893;28;20262;-64
2022/02/16 07:06:35;;;;;;;4.85;4.35;;;8.70;99.90;;;;;;5094379;28;20227;-64
2022/02/16 07:09:03;;;;;;;2.97;2.60;;;8.80;99.90;;;;;;5094436;28;20216;-63
2022/02/16 07:11:31;;;;;;;7.82;7.03;;;8.70;99.90;;;;;;5093923;28;20234;-63
2022/02/16 07:13:58;;;;;;;12.18;10.40;;;8.70;99.90;;;;;;5094343;28;20231;-64
2022/02/16 07:16:25;;;;;;;4.47;4.18;;;8.70;99.90;;;;;;5094000;28;20235;-64
2022/02/16 07:18:52;;;;;;;4.43;4.03;;;8.60;99.90;;;;;;5094142;28;20220;-64
2022/02/16 07:21:19;;;;;;;3.08;2.85;;;8.60;99.90;;;;;;5093801;28;20238;-64
2022/02/16 07:23:48;;;;;;;3.13;2.92;;;8.70;99.90;;;;;;5094026;28;20599;-64
2022/02/16 07:26:15;;;;;;;3.65;3.03;;;8.60;99.90;;;;;;5093847;28;20224;-64
2022/02/16 07:28:44;;;;;;;2.60;2.40;;;8.60;99.90;;;;;;5094187;28;20259;-64
2022/02/16 07:31:10;;;;;;;2.38;2.17;;;8.60;99.90;;;;;;5093404;28;20247;-64
2022/02/16 07:33:37;;;;;;;2.72;2.00;;;8.60;99.90;;;;;;5094083;28;20234;-64
2022/02/16 07:36:05;;;;;;;6.55;3.60;;;8.50;99.90;;;;;;5094020;28;20224;-64
2022/02/16 07:38:32;;;;;;;2.53;2.33;;;8.60;99.90;;;;;;5093292;28;20232;-64
2022/02/16 07:41:00;;;;;;;4.38;2.22;;;8.70;99.90;;;;;;5093626;28;20568;-64
2022/02/16 07:43:27;;;;;;;3.13;2.10;;;8.70;99.90;;;;;;5093447;28;20709;-64
2022/02/16 07:45:56;;;;;;;3.10;2.90;;;8.70;99.90;;;;;;5093685;28;20220;-64
2022/02/16 07:48:23;;;;;;;4.13;2.67;;;8.70;99.90;;;;;;5093122;28;20611;-64
2022/02/16 07:50:49;;;;;;;2.00;1.83;;;8.70;99.90;;;;;;5093513;28;20572;-63
2022/02/16 07:53:16;;;;;;;2.85;2.65;;;8.70;99.90;;;;;;5093081;28;20230;-63
2022/02/16 07:55:44;;;;;;;2.85;2.45;;;8.70;99.90;;;;;;5093025;28;20250;-63
2022/02/16 07:58:11;;;;;;;2.17;2.05;;;8.80;99.90;;;;;;5093089;28;20224;-63
2022/02/16 08:00:38;;;;;;;2.47;2.33;;;8.80;99.90;;;;;;5093374;28;20247;-63
2022/02/16 08:03:07;;;;;;;3.28;2.35;;;8.70;99.90;;;;;;5093359;28;20725;-63
2022/02/16 08:05:34;;;;;;;4.38;4.00;;;8.80;99.90;;;;;;5093160;28;21100;-64
2022/02/16 08:08:01;;;;;;;4.75;3.03;;;8.80;99.90;;;;;;5092922;28;20224;-64
2022/02/16 08:10:29;;;;;;;3.05;2.70;;;8.70;99.90;;;;;;5092784;28;20231;-63
2022/02/16 08:12:57;;;;;;;3.22;2.80;;;8.80;99.90;;;;;;5093221;28;20219;-64
2022/02/16 08:15:25;;;;;;;2.38;2.17;;;8.80;99.90;;;;;;5092519;28;20298;-64
2022/02/16 08:17:52;;;;;;;6.13;5.53;;;8.70;99.90;;;;;;5093147;28;20318;-64
2022/02/16 08:20:21;;;;;;;4.15;3.75;;;8.80;99.90;;;;;;5092595;28;20224;-64
2022/02/16 08:22:48;;;;;;;2.13;1.90;;;8.80;99.90;;;;;;5092950;28;20284;-64
2022/02/16 08:25:15;;;;;;;1.83;1.65;;;8.80;99.90;;;;;;5092524;28;20246;-64
2022/02/16 08:27:43;;;;;;;1.65;1.55;;;8.80;99.90;;;;;;5092828;28;20220;-64
2022/02/16 08:30:11;;;;;;;2.13;2.03;;;8.80;99.90;;;;;;5092661;28;20223;-63
2022/02/16 08:32:38;;;;;;;1.65;1.45;;;8.80;99.90;;;;;;5092857;28;20215;-64
2022/02/16 08:35:06;;;;;;;2.55;2.10;;;8.80;99.90;;;;;;5092615;28;20676;-63
2022/02/16 08:37:35;;;;;;;2.67;1.90;;;8.90;99.90;;;;;;5092142;28;20223;-64
2022/02/16 08:40:02;;;;;;;3.42;2.05;;;8.90;99.90;;;;;;5092682;28;20297;-63
2022/02/16 08:42:28;;;;;;;2.38;1.70;;;8.90;99.90;;;;;;5092265;28;20764;-64
2022/02/16 08:44:58;;;;;;;1.83;1.60;;;9.00;99.90;;;;;;5092580;28;20223;-63
2022/02/16 08:47:25;;;;;;;1.80;1.58;;;8.90;99.90;;;;;;5092373;28;20230;-63
2022/02/16 08:49:52;;;;;;;2.38;2.15;;;9.00;99.90;;;;;;5092507;28;20224;-64
2022/02/16 08:52:19;;;;;;;2.00;1.30;;;9.00;99.90;;;;;;5092047;28;20707;-63
2022/02/16 08:54:47;;;;;;;1.60;1.50;;;8.90;99.90;;;;;;5092644;28;20220;-63
2022/02/16 08:57:14;;;;;;;1.60;1.50;;;8.90;99.90;;;;;;5092536;28;20219;-63
2022/02/16 08:59:41;;;;;;;4.97;1.65;;;8.90;99.90;;;;;;5092494;28;20215;-63
2022/02/16 09:02:08;;;;;;;1.90;1.70;;;8.80;99.90;;;;;;5092792;28;20223;-63
2022/02/16 09:04:35;;;;;;;2.53;2.30;;;8.80;99.90;;;;;;5092209;28;20321;-63
2022/02/16 09:09:48;;;;;;;1.55;1.30;;;8.90;99.90;;;;;;5096249;28;20254;-64
2022/02/16 09:12:14;;;;;;;2.08;1.30;;;9.00;99.90;;;;;;5096684;28;20681;-64
2022/02/16 09:14:41;;;;;;;2.15;1.23;;;9.00;99.90;;;;;;5096051;28;20236;-63
2022/02/16 09:17:09;;;;;;;1.30;1.15;;;9.00;99.90;;;;;;5096705;28;20230;-64
2022/02/16 09:19:37;;;;;;;1.40;1.30;;;9.00;99.90;;;;;;5096220;28;20224;-64
2022/02/16 09:22:05;;;;;;;2.35;2.15;;;9.00;99.90;;;;;;5096255;28;20227;-63
2022/02/16 09:24:32;;;;;;;7.20;4.70;;;9.10;99.90;;;;;;5096123;28;20242;-64
2022/02/16 09:27:01;;;;;;;6.85;5.07;;;9.10;99.90;;;;;;5096270;28;20234;-64
2022/02/16 09:29:28;;;;;;;6.53;4.07;;;9.00;99.90;;;;;;5095946;28;20223;-64
2022/02/16 09:31:55;;;;;;;3.22;2.92;;;9.00;99.90;;;;;;5096530;28;20219;-63
2022/02/16 09:34:23;;;;;;;3.15;2.03;;;9.00;99.90;;;;;;5096239;28;20220;-64
2022/02/16 09:36:50;;;;;;;2.70;1.70;;;9.00;99.90;;;;;;5095917;28;20220;-64
2022/02/16 09:39:17;;;;;;;2.00;1.77;;;9.00;99.90;;;;;;5096084;28;20219;-64
2022/02/16 09:41:46;;;;;;;1.80;1.35;;;9.00;99.90;;;;;;5095498;28;20290;-64
2022/02/16 09:44:18;;;;;;;1.80;1.70;;;9.00;99.90;;;;;;5095862;28;20216;-64
2022/02/16 09:46:45;;;;;;;1.73;1.40;;;9.00;99.90;;;;;;5095594;28;20227;-64
2022/02/16 09:49:13;;;;;;;2.33;1.02;;;9.00;99.90;;;;;;5096081;28;20672;-64
2022/02/16 09:51:42;;;;;;;1.50;1.13;;;9.10;99.90;;;;;;5095329;28;20236;-63
2022/02/16 09:54:10;;;;;;;1.75;1.50;;;9.20;99.90;;;;;;5095963;28;20784;-63
2022/02/16 09:56:42;;;;;;;1.20;1.10;;;9.20;99.90;;;;;;5095347;28;20626;-63
2022/02/16 09:59:08;;;;;;;3.25;2.95;;;9.20;99.90;;;;;;5095751;28;20404;-64
2022/02/16 10:01:54;;;;;;;2.85;2.65;;;9.20;99.90;;;;;;5095085;28;20228;-64
2022/02/16 10:04:21;;;;;;;2.47;1.30;;;9.20;99.90;;;;;;5095806;28;20714;-64
2022/02/16 10:06:48;;;;;;;2.22;1.13;;;9.20;99.90;;;;;;5095285;28;20226;-64
2022/02/16 10:09:25;;;;;;;1.40;1.30;;;9.20;99.90;;;;;;5095499;28;20285;-64
2022/02/16 10:11:55;;;;;;;2.20;1.70;;;9.20;99.90;;;;;;5095197;28;20234;-64
2022/02/16 10:14:23;;;;;;;2.00;1.80;;;9.30;99.90;;;;;;5095522;28;20235;-63
2022/02/16 10:16:51;;;;;;;1.63;1.52;;;9.30;99.90;;;;;;5095001;28;20224;-64
2022/02/16 10:19:18;;;;;;;2.55;1.60;;;9.40;99.90;;;;;;5095139;28;20215;-63
2022/02/16 10:22:12;;;;;;;1.80;1.35;;;9.40;99.90;;;;;;5094804;28;20232;-64
2022/02/16 10:24:39;;;;;;;4.63;2.53;;;9.30;99.90;;;;;;5070406;28;20332;-63
2022/02/16 10:27:06;;;;;;;4.03;2.92;;;9.20;99.90;;;;;;5095211;28;20220;-64
2022/02/16 10:29:35;;;;;;;3.15;2.72;;;9.20;99.90;;;;;;5094770;28;20249;-63
2022/02/16 10:32:05;;;;;;;4.97;3.35;;;9.10;99.90;;;;;;5095105;28;20285;-63
2022/02/16 10:34:51;;;;;;;1.60;1.13;;;9.10;99.90;;;;;;5094598;28;20281;-62
2022/02/16 10:37:20;;;;;;;3.17;2.70;;;9.10;99.90;;;;;;5094882;28;20216;-63
2022/02/16 10:40:00;;;;;;;3.10;2.80;;;9.10;99.90;;;;;;5094226;28;20556;-63
2022/02/16 10:42:28;;;;;;;2.55;1.98;;;9.10;99.90;;;;;;5094863;28;20223;-64
2022/02/16 10:45:06;;;;;;;1.95;1.27;;;9.20;99.90;;;;;;5094582;28;20220;-63
2022/02/16 10:47:53;;;;;;;1.20;1.10;;;9.10;99.90;;;;;;5094418;28;20242;-63
2022/02/16 10:50:21;;;;;;;1.73;1.60;;;9.10;99.90;;;;;;5094601;28;20247;-64
2022/02/16 10:52:53;;;;;;;1.42;1.33;;;9.20;99.90;;;;;;5094022;28;20220;-63
2022/02/16 10:55:21;;;;;;;1.58;1.30;;;9.20;99.90;;;;;;5094438;28;20607;-63
2022/02/16 10:57:48;;;;;;;2.60;1.70;;;9.10;99.90;;;;;;5094298;28;20284;-63
2022/02/16 11:00:16;;;;;;;2.58;1.63;;;9.20;99.90;;;;;;5094333;28;20238;-63
2022/02/16 11:02:46;;;;;;;2.88;2.67;;;9.20;99.90;;;;;;5093930;28;20228;-63
2022/02/16 11:05:14;;;;;;;2.00;1.48;;;9.10;99.90;;;;;;5094471;28;20344;-63
2022/02/16 11:07:42;;;;;;;1.35;1.23;;;9.10;99.90;;;;;;5093737;28;20228;-63
2022/02/16 11:10:09;;;;;;;1.70;1.52;;;9.20;99.90;;;;;;5094132;28;20216;-63
2022/02/16 11:12:37;;;;;;;3.30;2.17;;;9.20;99.90;;;;;;5093884;28;20230;-63
2022/02/16 11:15:05;;;;;;;1.35;1.25;;;9.20;99.90;;;;;;5094125;28;20228;-63
2022/02/16 11:17:32;;;;;;;2.17;1.40;;;9.20;99.90;;;;;;5093784;28;20538;-63
2022/02/16 11:20:20;;;;;;;5.75;5.25;;;9.10;99.90;;;;;;5094209;28;20696;-63
2022/02/16 11:22:52;;;;;;;7.82;5.65;;;9.20;99.90;;;;;;5093801;28;20232;-63
2022/02/16 11:25:30;;;;;;;15.32;12.25;;;9.20;99.90;;;;;;5094179;28;20231;-63
2022/02/16 11:27:58;;;;;;;6.03;5.38;;;9.20;99.90;;;;;;5093559;28;20559;-63
2022/02/16 11:30:34;;;;;;;4.75;4.38;;;9.20;99.90;;;;;;5093383;28;20372;-63
2022/02/16 11:33:13;;;;;;;3.10;2.78;;;9.20;99.90;;;;;;5093745;28;20902;-63
2022/02/16 11:35:51;;;;;;;9.55;6.80;;;9.30;99.90;;;;;;5093638;28;20568;-63
2022/02/16 11:38:20;;;;;;;1.98;1.65;;;9.20;99.90;;;;;;5093822;28;20223;-64
2022/02/16 11:40:49;;;;;;;1.30;1.20;;;9.20;99.90;;;;;;5093168;28;20677;-63
2022/02/16 11:43:18;;;;;;;2.47;1.85;;;9.20;99.90;;;;;;5093788;28;20560;-63
2022/02/16 11:45:52;;;;;;;2.45;2.00;;;9.20;99.90;;;;;;5093169;28;20281;-63
2022/02/16 11:48:43;;;;;;;4.43;4.03;;;9.20;99.90;;;;;;5093632;28;20223;-63
2022/02/16 11:51:34;;;;;;;2.10;1.90;;;9.20;99.90;;;;;;5093262;28;20725;-63
2022/02/16 11:54:43;;;;;;;5.25;4.75;;;9.20;99.90;;;;;;5112994;27;20233;-63
2022/02/16 11:57:42;;;;;;;4.07;2.80;;;9.20;99.90;;;;;;5112348;27;20223;-63
2022/02/16 12:00:28;;;;;;;2.75;1.75;;;9.20;99.90;;;;;;5107165;27;20241;-63
2022/02/16 12:03:26;;;;;;;4.85;2.25;;;9.20;99.90;;;;;;5112438;27;20234;-63
2022/02/16 12:05:59;;;;;;;2.55;2.30;;;9.20;99.90;;;;;;5112141;27;20251;-64
2022/02/16 12:08:30;;;;;;;1.50;1.40;;;9.20;99.90;;;;;;5113306;27;20215;-63
2022/02/16 12:10:59;;;;;;;3.25;2.20;;;9.10;99.90;;;;;;5112493;27;20260;-64
2022/02/16 12:13:32;;;;;;;2.13;1.80;;;9.10;99.90;;;;;;5113402;27;20219;-63
2022/02/16 12:16:01;;;;;;;2.85;2.40;;;9.10;99.90;;;;;;5112416;27;20219;-64
2022/02/16 12:18:29;;;;;;;2.40;2.13;;;9.10;99.90;;;;;;5113607;27;20249;-63
2022/02/16 12:20:57;;;;;;;5.82;5.20;;;9.10;99.90;;;;;;5112723;27;20237;-63
2022/02/16 12:23:24;;;;;;;5.45;4.90;;;9.10;99.90;;;;;;5113134;27;20230;-64
2022/02/16 12:26:08;;;;;;;2.80;2.30;;;9.20;99.90;;;;;;5112779;27;20223;-64
2022/02/16 12:28:56;;;;;;;3.08;2.00;;;9.20;99.90;;;;;;5113158;27;20223;-64
2022/02/16 12:31:25;;;;;;;1.50;1.40;;;9.20;99.90;;;;;;5112818;27;20967;-64
2022/02/16 12:33:54;;;;;;;1.50;1.40;;;9.20;99.90;;;;;;5113145;27;20226;-64
2022/02/16 12:36:21;;;;;;;2.95;1.85;;;9.30;99.90;;;;;;5112657;27;20649;-64
2022/02/16 12:38:49;;;;;;;2.90;1.55;;;9.30;99.90;;;;;;5113050;27;20219;-63
2022/02/16 12:41:19;;;;;;;2.13;2.00;;;9.20;99.90;;;;;;5112558;27;20696;-63
2022/02/16 12:43:53;;;;;;;8.07;5.43;;;9.20;99.90;;;;;;5112976;27;20719;-63
2022/02/16 12:46:20;;;;;;;3.85;3.55;;;9.30;99.90;;;;;;5112733;27;20231;-64
2022/02/16 12:48:47;;;;;;;8.38;5.68;;;9.20;99.90;;;;;;5113045;27;20223;-63
2022/02/16 12:51:31;;;;;;;4.60;3.10;;;9.30;99.90;;;;;;5112225;27;20223;-63
2022/02/16 12:54:05;;;;;;;6.65;5.63;;;9.30;99.90;;;;;;5102585;27;20223;-64
2022/02/16 12:56:39;;;;;;;5.10;2.42;;;9.30;99.90;;;;;;5112657;27;20227;-64
2022/02/16 12:59:17;;;;;;;3.15;2.95;;;9.30;99.90;;;;;;5112971;27;20226;-64
2022/02/16 13:01:44;;;;;;;2.38;2.17;;;9.30;99.90;;;;;;5113185;27;20238;-64
2022/02/16 13:04:14;;;;;;;7.20;5.30;;;9.40;99.90;;;;;;5112573;27;20230;-64
2022/02/16 13:06:43;;;;;;;3.30;2.95;;;9.40;99.90;;;;;;5112964;27;20280;-64
2022/02/16 13:09:11;;;;;;;2.38;1.67;;;9.40;99.90;;;;;;5112564;27;20223;-63